Terminal Aerodrome Forecast
Issued by NWS Denver/Boulder, CO

Home | Current Version | Previous Version | Text Only | Print | Product List | Glossary On
Versions: 1 2 3 4 5 6 7 8 9 10 11 12 13 14 15 16 17 18 19 20 21 22 23 24 25 26 27 28 29 30 31 32
000
FTUS45 KBOU 192015 AAA
TAFDEN
TAF AMD
KDEN 192015Z 1920/2024 04006KT P6SM FEW120 BKN220
     FM200200 17008KT P6SM FEW120 BKN220
     FM200600 22012KT P6SM FEW120 BKN220
     FM201200 24008KT P6SM BKN220
     FM201900 24010KT P6SM SCT180
     FM202100 26015KT P6SM BKN180=

USA.gov is the U.S. government's official web portal to all federal, state and local government web resources and services.